createdAt,value
2022-11-12T00:01:54.436Z,6.27
2022-11-12T00:04:39.645Z,6.24
2022-11-12T00:07:24.538Z,6.32
2022-11-12T00:10:09.906Z,6.36
2022-11-12T00:12:55.512Z,6.43
2022-11-12T00:15:40.963Z,6.50
2022-11-12T00:18:26.206Z,6.20
2022-11-12T00:21:11.310Z,6.43
2022-11-12T00:23:56.290Z,6.45
2022-11-12T00:26:41.326Z,6.42
2022-11-12T00:29:26.642Z,6.38
2022-11-12T00:32:12.491Z,6.32
2022-11-12T00:35:00.278Z,6.29
2022-11-12T00:37:47.810Z,6.31
2022-11-12T00:40:32.982Z,6.44
2022-11-12T00:43:17.821Z,6.42
2022-11-12T00:46:03.307Z,6.42
2022-11-12T00:48:48.020Z,6.47
2022-11-12T00:51:32.994Z,6.43
2022-11-12T00:54:18.213Z,6.52
2022-11-12T00:57:03.422Z,6.48
2022-11-12T00:59:48.623Z,6.62
2022-11-12T01:02:40.675Z,6.38
2022-11-12T01:05:27.380Z,6.57
2022-11-12T01:08:12.352Z,6.61
2022-11-12T01:11:04.308Z,6.67
2022-11-12T01:13:55.664Z,6.57
2022-11-12T01:16:42.871Z,6.56
2022-11-12T01:19:28.049Z,6.48
2022-11-12T01:22:13.018Z,6.44
2022-11-12T01:24:57.915Z,6.37
2022-11-12T01:27:43.120Z,6.47
2022-11-12T01:30:28.231Z,6.38
2022-11-12T01:33:13.623Z,6.25
2022-11-12T01:35:59.725Z,6.13
2022-11-12T01:38:46.093Z,6.19
2022-11-12T01:41:34.869Z,6.20
2022-11-12T01:44:25.134Z,6.22
2022-11-12T01:47:17.281Z,6.14
2022-11-12T01:50:17.137Z,6.20
2022-11-12T01:53:06.282Z,6.13
2022-11-12T01:55:52.959Z,6.19
2022-11-12T01:58:40.059Z,6.31
2022-11-12T02:01:25.827Z,6.30
2022-11-12T02:04:11.336Z,6.27
2022-11-12T02:06:57.728Z,6.29
2022-11-12T02:09:42.899Z,6.13
2022-11-12T02:12:46.775Z,6.13
2022-11-12T02:15:32.006Z,6.02
2022-11-12T02:18:17.532Z,6.14
2022-11-12T02:21:08.862Z,6.18
2022-11-12T02:24:17.637Z,6.15
2022-11-12T02:27:04.601Z,6.17
2022-11-12T02:29:49.634Z,6.18
2022-11-12T02:32:34.574Z,6.06
2022-11-12T02:35:19.981Z,6.20
2022-11-12T02:38:05.854Z,6.22
2022-11-12T02:40:51.987Z,6.23
2022-11-12T02:43:37.680Z,6.20
2022-11-12T02:46:23.235Z,6.22
2022-11-12T02:49:08.355Z,6.19
2022-11-12T02:51:53.556Z,6.31
2022-11-12T02:54:38.609Z,6.26
2022-11-12T02:57:23.586Z,6.02
2022-11-12T03:00:12.048Z,6.23
2022-11-12T03:03:00.192Z,6.12
2022-11-12T03:05:46.138Z,6.22
2022-11-12T03:08:31.329Z,6.14
2022-11-12T03:11:17.294Z,6.27
2022-11-12T03:14:02.519Z,6.17
2022-11-12T03:16:47.707Z,6.25
2022-11-12T03:19:32.648Z,6.26
2022-11-12T03:22:17.744Z,6.27
2022-11-12T03:25:02.580Z,6.16
2022-11-12T03:27:47.907Z,6.29
2022-11-12T03:30:35.544Z,6.31
2022-11-12T03:33:20.592Z,6.29
2022-11-12T03:36:05.848Z,6.30
2022-11-12T03:38:50.651Z,6.17
2022-11-12T03:41:35.667Z,6.00
2022-11-12T03:44:20.668Z,6.09
2022-11-12T03:47:05.969Z,6.27
2022-11-12T03:49:51.079Z,6.28
2022-11-12T03:52:36.630Z,6.31
2022-11-12T03:55:23.752Z,6.29
2022-11-12T03:58:09.135Z,6.23
2022-11-12T04:00:54.294Z,6.30
2022-11-12T04:03:39.259Z,5.99
2022-11-12T04:06:42.942Z,6.32
2022-11-12T04:09:28.096Z,6.30
2022-11-12T04:12:31.849Z,6.20
2022-11-12T04:15:17.058Z,6.19
2022-11-12T04:18:20.889Z,6.22
2022-11-12T04:21:26.823Z,6.29
2022-11-12T04:24:32.021Z,6.39
2022-11-12T04:27:20.851Z,6.40
2022-11-12T04:30:21.375Z,6.39
2022-11-12T04:33:06.512Z,6.15
2022-11-12T04:35:51.424Z,6.44
2022-11-12T04:38:36.685Z,6.45
2022-11-12T04:41:40.241Z,6.42
2022-11-12T04:44:43.969Z,6.45
2022-11-12T04:47:37.977Z,6.44
2022-11-12T04:50:23.126Z,6.43
2022-11-12T04:53:08.263Z,6.47
2022-11-12T04:55:54.986Z,6.45
2022-11-12T04:58:40.001Z,6.41
2022-11-12T05:01:24.939Z,6.47
2022-11-12T05:04:09.989Z,6.49
2022-11-12T05:06:58.810Z,6.46
2022-11-12T05:09:44.260Z,6.41
2022-11-12T05:12:29.240Z,6.22
2022-11-12T05:15:14.484Z,6.18
2022-11-12T05:17:59.365Z,6.09
2022-11-12T05:20:44.239Z,6.43
2022-11-12T05:23:29.272Z,6.46
2022-11-12T05:26:14.242Z,6.42
2022-11-12T05:28:59.009Z,6.43
2022-11-12T05:31:44.086Z,6.39
2022-11-12T05:34:29.523Z,6.50
2022-11-12T05:37:15.497Z,6.45
2022-11-12T05:40:01.096Z,6.50
2022-11-12T05:42:46.032Z,6.35
2022-11-12T05:45:31.323Z,6.37
2022-11-12T05:48:18.971Z,6.35
2022-11-12T05:51:15.215Z,6.39
2022-11-12T05:54:01.265Z,6.37
2022-11-12T05:56:46.564Z,6.39
2022-11-12T05:59:31.620Z,6.34
2022-11-12T06:02:16.668Z,6.30
2022-11-12T06:05:01.671Z,6.29
2022-11-12T06:07:46.859Z,6.26
2022-11-12T06:10:33.292Z,6.34
2022-11-12T06:13:19.343Z,6.03
2022-11-12T06:16:04.684Z,6.37
2022-11-12T06:18:49.774Z,6.42
2022-11-12T06:21:34.557Z,6.46
2022-11-12T06:24:19.566Z,6.38
2022-11-12T06:27:04.554Z,6.42
2022-11-12T06:29:49.852Z,6.36
2022-11-12T06:32:35.558Z,6.48
2022-11-12T06:35:20.763Z,6.50
2022-11-12T06:38:05.912Z,6.08
2022-11-12T06:40:50.731Z,6.47
2022-11-12T06:43:36.547Z,6.46
2022-11-12T06:46:21.369Z,6.44
2022-11-12T06:49:06.430Z,6.41
2022-11-12T06:51:51.764Z,6.32
2022-11-12T06:54:36.988Z,6.38
2022-11-12T06:57:22.030Z,6.36
2022-11-12T07:00:08.508Z,6.29
2022-11-12T07:02:53.753Z,6.38
2022-11-12T07:05:39.231Z,6.40
2022-11-12T07:08:24.552Z,6.32
2022-11-12T07:11:10.224Z,6.32
2022-11-12T07:13:55.014Z,6.28
2022-11-12T07:16:39.969Z,6.35
2022-11-12T07:19:24.786Z,6.32
2022-11-12T07:22:09.648Z,6.12
2022-11-12T07:24:54.568Z,6.29
2022-11-12T07:27:39.869Z,6.27
2022-11-12T07:30:25.120Z,6.29
2022-11-12T07:33:09.933Z,6.26
2022-11-12T07:36:04.616Z,6.30
2022-11-12T07:38:55.334Z,6.12
2022-11-12T07:41:40.554Z,6.35
2022-11-12T07:44:26.071Z,6.37
2022-11-12T07:47:11.975Z,6.43
2022-11-12T07:49:57.287Z,6.34
2022-11-12T07:52:42.327Z,6.36
2022-11-12T07:55:27.270Z,6.45
2022-11-12T07:58:12.130Z,6.42
2022-11-12T08:00:57.123Z,6.36
2022-11-12T08:03:42.482Z,6.19
2022-11-12T08:06:28.022Z,6.28
2022-11-12T08:09:13.413Z,6.27
2022-11-12T08:11:58.512Z,6.29
2022-11-12T08:14:43.391Z,6.21
2022-11-12T08:17:28.225Z,6.26
2022-11-12T08:20:13.451Z,6.30
2022-11-12T08:23:01.886Z,6.35
2022-11-12T08:25:47.134Z,6.35
2022-11-12T08:28:34.134Z,6.38
2022-11-12T08:31:22.116Z,6.40
2022-11-12T08:34:15.181Z,6.42
2022-11-12T08:37:03.597Z,6.35
2022-11-12T08:39:48.859Z,6.43
2022-11-12T08:42:34.044Z,6.43
2022-11-12T08:45:18.958Z,6.44
2022-11-12T08:48:09.581Z,6.74
2022-11-12T08:50:55.526Z,6.68
2022-11-12T08:53:40.642Z,6.84
2022-11-12T08:56:25.643Z,6.86
2022-11-12T08:59:10.630Z,6.90
2022-11-12T09:01:56.219Z,6.93
2022-11-12T09:04:41.334Z,6.86
2022-11-12T09:07:48.972Z,6.85
2022-11-12T09:10:32.170Z,6.96
2022-11-12T09:13:18.477Z,6.87
2022-11-12T09:16:06.147Z,6.94
2022-11-12T09:18:51.122Z,6.92
2022-11-12T09:21:36.032Z,6.64
2022-11-12T09:24:21.156Z,6.96
2022-11-12T09:27:06.069Z,7.12
2022-11-12T09:29:51.270Z,7.11
2022-11-12T09:32:36.362Z,7.17
2022-11-12T09:35:22.500Z,7.21
2022-11-12T09:38:07.351Z,7.15
2022-11-12T09:40:52.193Z,7.15
2022-11-12T09:44:03.443Z,7.04
2022-11-12T09:46:53.719Z,7.15
2022-11-12T09:49:43.102Z,7.28
2022-11-12T09:52:30.055Z,7.24
2022-11-12T09:55:22.414Z,7.36
2022-11-12T09:58:19.391Z,7.41
2022-11-12T10:01:31.890Z,7.18
2022-11-12T10:04:29.162Z,7.41
2022-11-12T10:07:25.462Z,7.24
2022-11-12T10:10:16.607Z,7.34
2022-11-12T10:13:20.666Z,7.27
2022-11-12T10:16:37.672Z,7.32
2022-11-12T10:19:34.579Z,7.37
2022-11-12T10:22:42.379Z,7.44
2022-11-12T10:25:28.135Z,7.50
2022-11-12T10:28:38.528Z,7.51
2022-11-12T10:31:24.114Z,7.65
2022-11-12T10:34:18.704Z,7.61
2022-11-12T10:37:13.701Z,7.52
2022-11-12T10:39:58.753Z,7.56
2022-11-12T10:43:05.596Z,7.54
2022-11-12T10:45:51.035Z,7.51
2022-11-12T10:48:36.694Z,7.51
2022-11-12T10:51:28.544Z,7.54
2022-11-12T10:54:27.815Z,7.63
2022-11-12T10:57:25.414Z,7.69
2022-11-12T11:00:13.273Z,7.71
2022-11-12T11:02:59.556Z,7.75
2022-11-12T11:05:53.616Z,7.87
2022-11-12T11:08:44.566Z,7.97
2022-11-12T11:11:30.949Z,7.62
2022-11-12T11:14:21.915Z,7.95
2022-11-12T11:17:16.506Z,8.02
2022-11-12T11:20:02.953Z,7.98
2022-11-12T11:22:56.279Z,7.94
2022-11-12T11:25:43.220Z,8.03
2022-11-12T11:28:48.596Z,7.92
2022-11-12T11:31:48.922Z,8.12
2022-11-12T11:34:46.143Z,8.21
2022-11-12T11:37:37.867Z,8.30
2022-11-12T11:40:31.545Z,8.31
2022-11-12T11:43:21.297Z,8.31
2022-11-12T11:46:31.410Z,8.34
2022-11-12T11:49:31.666Z,8.41
2022-11-12T11:52:34.823Z,8.51
2022-11-12T11:55:36.227Z,8.62
2022-11-12T11:58:59.212Z,8.72
2022-11-12T12:02:16.264Z,8.67
2022-11-12T12:05:21.877Z,8.79
2022-11-12T12:08:18.388Z,8.87
2022-11-12T12:11:14.939Z,8.92
2022-11-12T12:14:03.046Z,8.81
2022-11-12T12:16:52.386Z,8.90
2022-11-12T12:19:37.233Z,8.90
2022-11-12T12:22:46.965Z,8.76
2022-11-12T12:25:35.879Z,8.87
2022-11-12T12:28:35.411Z,8.86
2022-11-12T12:31:29.456Z,8.93
2022-11-12T12:34:33.211Z,8.94
2022-11-12T12:37:35.218Z,9.00
2022-11-12T12:40:32.587Z,8.93
2022-11-12T12:43:41.652Z,8.90
2022-11-12T12:46:30.494Z,8.99
2022-11-12T12:49:28.412Z,8.92
2022-11-12T12:52:15.287Z,9.01
2022-11-12T12:55:00.270Z,9.00
2022-11-12T12:57:45.520Z,8.95
2022-11-12T13:00:40.952Z,9.08
2022-11-12T13:03:44.636Z,9.10
2022-11-12T13:06:35.668Z,9.09
2022-11-12T13:09:25.751Z,9.05
2022-11-12T13:12:10.557Z,9.02
2022-11-12T13:15:15.792Z,9.09
2022-11-12T13:18:00.727Z,9.16
2022-11-12T13:21:10.530Z,9.16
2022-11-12T13:24:08.902Z,8.92
2022-11-12T13:26:56.913Z,9.27
2022-11-12T13:29:43.870Z,9.23
2022-11-12T13:32:38.179Z,9.21
2022-11-12T13:35:35.260Z,9.05
2022-11-12T13:38:20.310Z,9.11
2022-11-12T13:41:51.998Z,8.96
2022-11-12T13:44:37.532Z,8.82
2022-11-12T13:47:24.895Z,8.83
2022-11-12T13:50:15.172Z,8.76
2022-11-12T13:53:01.052Z,8.80
2022-11-12T13:55:50.628Z,8.74
2022-11-12T13:58:36.308Z,8.85
2022-11-12T14:01:24.243Z,8.90
2022-11-12T14:04:18.963Z,8.94
2022-11-12T14:07:29.877Z,8.88
2022-11-12T14:10:56.639Z,8.87
2022-11-12T14:14:15.999Z,8.97
2022-11-12T14:17:26.273Z,8.98
2022-11-12T14:20:41.302Z,8.97
2022-11-12T14:23:26.591Z,8.94
2022-11-12T14:26:12.887Z,8.98
2022-11-12T14:28:58.174Z,8.96
2022-11-12T14:31:43.607Z,8.97
2022-11-12T14:34:33.991Z,8.96
2022-11-12T14:37:39.885Z,8.86
2022-11-12T14:40:29.864Z,8.95
2022-11-12T14:43:28.166Z,8.90
2022-11-12T14:46:22.625Z,8.87
2022-11-12T14:49:16.628Z,8.89
2022-11-12T14:52:22.755Z,8.80
2022-11-12T14:55:12.225Z,8.76
2022-11-12T14:57:59.581Z,8.70
2022-11-12T15:00:46.797Z,8.74
2022-11-12T15:03:32.784Z,8.74
2022-11-12T15:06:29.639Z,8.72
2022-11-12T15:09:18.741Z,8.63
2022-11-12T15:12:07.230Z,8.53
2022-11-12T15:14:53.595Z,8.52
2022-11-12T15:17:38.590Z,8.56
2022-11-12T15:20:24.072Z,8.54
2022-11-12T15:23:17.730Z,8.50
2022-11-12T15:26:03.402Z,8.40
2022-11-12T15:29:02.432Z,8.45
2022-11-12T15:31:50.422Z,8.37
2022-11-12T15:34:41.368Z,8.44
2022-11-12T15:37:29.793Z,8.38
2022-11-12T15:40:20.020Z,8.23
2022-11-12T15:43:13.892Z,8.20
2022-11-12T15:45:59.495Z,8.26
2022-11-12T15:48:44.863Z,8.29
2022-11-12T15:51:30.274Z,8.36
2022-11-12T15:54:15.593Z,8.25
2022-11-12T15:57:00.571Z,8.26
2022-11-12T15:59:51.235Z,8.03
2022-11-12T16:02:36.239Z,8.30
2022-11-12T16:05:21.236Z,8.27
2022-11-12T16:08:06.204Z,8.22
2022-11-12T16:10:51.419Z,8.05
2022-11-12T16:13:36.536Z,7.96
2022-11-12T16:16:21.874Z,8.03
2022-11-12T16:19:14.838Z,8.10
2022-11-12T16:22:01.334Z,8.10
2022-11-12T16:24:46.547Z,8.01
2022-11-12T16:27:31.680Z,7.88
2022-11-12T16:30:25.376Z,7.97
2022-11-12T16:33:12.237Z,8.04
2022-11-12T16:35:57.040Z,8.06
2022-11-12T16:38:42.200Z,7.75
2022-11-12T16:41:27.163Z,7.84
2022-11-12T16:44:12.064Z,7.74
2022-11-12T16:46:57.275Z,7.75
2022-11-12T16:49:42.793Z,7.68
2022-11-12T16:52:27.756Z,7.61
2022-11-12T16:55:12.852Z,7.66
2022-11-12T16:57:57.932Z,7.73
2022-11-12T17:00:45.360Z,7.38
2022-11-12T17:03:30.850Z,7.60
2022-11-12T17:06:16.369Z,7.67
2022-11-12T17:09:01.234Z,7.66
2022-11-12T17:11:46.114Z,7.67
2022-11-12T17:14:31.337Z,7.60
2022-11-12T17:17:16.604Z,7.68
2022-11-12T17:20:02.100Z,7.64
2022-11-12T17:22:47.096Z,7.57
2022-11-12T17:25:31.937Z,7.58
2022-11-12T17:28:16.833Z,7.51
2022-11-12T17:31:13.088Z,7.64
2022-11-12T17:33:58.410Z,7.43
2022-11-12T17:36:44.153Z,7.42
2022-11-12T17:39:29.836Z,7.60
2022-11-12T17:42:14.824Z,7.66
2022-11-12T17:45:00.013Z,7.60
2022-11-12T17:47:45.132Z,7.67
2022-11-12T17:50:30.168Z,7.55
2022-11-12T17:53:15.590Z,7.66
2022-11-12T17:56:01.541Z,7.61
2022-11-12T17:58:47.369Z,7.51
2022-11-12T18:01:33.938Z,7.49
2022-11-12T18:04:19.054Z,7.51
2022-11-12T18:07:04.117Z,7.50
2022-11-12T18:09:49.170Z,7.44
2022-11-12T18:12:34.327Z,7.41
2022-11-12T18:15:19.188Z,7.46
2022-11-12T18:18:04.538Z,7.39
2022-11-12T18:20:50.695Z,7.38
2022-11-12T18:23:39.994Z,7.38
2022-11-12T18:26:25.329Z,7.35
2022-11-12T18:29:12.495Z,7.30
2022-11-12T18:31:57.820Z,7.27
2022-11-12T18:34:44.554Z,7.15
2022-11-12T18:37:29.827Z,7.16
2022-11-12T18:40:15.740Z,7.23
2022-11-12T18:43:00.828Z,7.21
2022-11-12T18:45:53.793Z,7.17
2022-11-12T18:48:40.328Z,7.25
2022-11-12T18:51:25.596Z,7.19
2022-11-12T18:54:10.811Z,7.14
2022-11-12T18:56:56.090Z,7.07
2022-11-12T18:59:41.395Z,7.02
2022-11-12T19:02:26.359Z,7.08
2022-11-12T19:05:11.379Z,7.04
2022-11-12T19:07:56.646Z,7.00
2022-11-12T19:10:42.085Z,6.91
2022-11-12T19:13:27.880Z,6.84
2022-11-12T19:16:16.945Z,6.81
2022-11-12T19:19:02.056Z,6.79
2022-11-12T19:21:48.777Z,6.72
2022-11-12T19:24:33.978Z,6.71
2022-11-12T19:27:19.048Z,6.70
2022-11-12T19:30:05.960Z,6.67
2022-11-12T19:32:51.207Z,6.68
2022-11-12T19:35:36.079Z,6.67
2022-11-12T19:38:21.264Z,6.74
2022-11-12T19:41:18.752Z,6.69
2022-11-12T19:44:04.065Z,6.72
2022-11-12T19:46:49.244Z,6.88
2022-11-12T19:49:34.099Z,6.91
2022-11-12T19:52:19.619Z,6.90
2022-11-12T19:55:04.853Z,6.85
2022-11-12T19:57:49.865Z,6.90
2022-11-12T20:00:35.605Z,6.90
2022-11-12T20:03:24.872Z,6.91
2022-11-12T20:06:17.113Z,6.81
2022-11-12T20:09:04.043Z,6.82
2022-11-12T20:11:50.704Z,6.91
2022-11-12T20:14:35.817Z,6.90
2022-11-12T20:17:21.276Z,6.86
2022-11-12T20:20:07.474Z,6.77
2022-11-12T20:22:52.745Z,6.87
2022-11-12T20:25:37.934Z,6.79
2022-11-12T20:28:23.068Z,6.88
2022-11-12T20:31:10.630Z,6.89
2022-11-12T20:33:57.019Z,6.76
2022-11-12T20:36:42.044Z,6.82
2022-11-12T20:39:26.988Z,6.85
2022-11-12T20:42:12.197Z,6.81
2022-11-12T20:44:57.424Z,6.53
2022-11-12T20:47:42.376Z,6.79
2022-11-12T20:50:27.283Z,6.78
2022-11-12T20:53:12.714Z,6.79
2022-11-12T20:56:07.742Z,6.71
2022-11-12T20:58:52.965Z,6.63
2022-11-12T21:01:38.363Z,6.69
2022-11-12T21:04:24.609Z,6.70
2022-11-12T21:07:09.632Z,6.68
2022-11-12T21:09:54.809Z,6.68
2022-11-12T21:12:39.624Z,6.64
2022-11-12T21:15:24.663Z,6.57
2022-11-12T21:18:09.644Z,6.43
2022-11-12T21:21:07.555Z,6.42
2022-11-12T21:23:53.912Z,6.54
2022-11-12T21:26:39.486Z,6.59
2022-11-12T21:29:24.475Z,6.61
2022-11-12T21:32:09.215Z,6.62
2022-11-12T21:34:55.677Z,6.60
2022-11-12T21:37:40.364Z,6.53
2022-11-12T21:40:25.417Z,6.50
2022-11-12T21:43:10.591Z,6.50
2022-11-12T21:45:55.789Z,6.58
2022-11-12T21:48:41.263Z,6.50
2022-11-12T21:51:29.906Z,6.49
2022-11-12T21:54:15.107Z,6.39
2022-11-12T21:57:00.088Z,6.44
2022-11-12T21:59:45.692Z,6.39
2022-11-12T22:02:31.100Z,6.32
2022-11-12T22:05:16.253Z,6.27
2022-11-12T22:08:01.462Z,6.22
2022-11-12T22:10:46.194Z,6.13
2022-11-12T22:13:31.801Z,6.19
2022-11-12T22:16:25.194Z,6.05
2022-11-12T22:19:11.295Z,6.08
2022-11-12T22:21:56.412Z,6.04
2022-11-12T22:24:41.503Z,5.69
2022-11-12T22:27:26.674Z,5.92
2022-11-12T22:30:12.320Z,6.03
2022-11-12T22:32:57.302Z,6.01
2022-11-12T22:35:42.161Z,6.06
2022-11-12T22:38:27.588Z,6.07
2022-11-12T22:41:18.667Z,6.11
2022-11-12T22:44:03.678Z,6.10
2022-11-12T22:46:48.950Z,6.07
2022-11-12T22:49:33.762Z,5.87
2022-11-12T22:52:18.879Z,6.03
2022-11-12T22:55:04.607Z,5.95
2022-11-12T22:57:49.840Z,6.00
2022-11-12T23:00:35.058Z,6.01
2022-11-12T23:03:19.911Z,5.97
2022-11-12T23:06:06.415Z,5.97
2022-11-12T23:08:52.867Z,5.78
2022-11-12T23:11:38.464Z,5.85
2022-11-12T23:14:23.815Z,5.88
2022-11-12T23:17:08.760Z,5.89
2022-11-12T23:19:54.619Z,5.92
2022-11-12T23:22:39.486Z,5.83
2022-11-12T23:25:24.587Z,5.87
2022-11-12T23:28:10.046Z,5.77
2022-11-12T23:30:55.006Z,5.69
2022-11-12T23:33:44.378Z,5.73
2022-11-12T23:36:30.449Z,5.77
2022-11-12T23:39:15.735Z,5.79
2022-11-12T23:42:01.116Z,5.75
2022-11-12T23:44:46.517Z,5.69
2022-11-12T23:47:31.919Z,5.70
2022-11-12T23:50:17.472Z,5.68
2022-11-12T23:53:02.646Z,5.65
2022-11-12T23:55:47.875Z,5.54
2022-11-12T23:58:33.235Z,5.62
